Flight Track Log - Related Links

Times and Time Zones

All times are in EDT time to prevent confusion due to time zone crossing. See the SWA1377 flight status page for this flight to view local times or setup timezone preferences in your user account.

Time Position Orientation Groundspeed Altitude Reporting Facility
EDT Latitude Longitude Course Direction KTS MPH feet Rate Location/Type
Thu 05:54:06 PM 36.0831 -115.2708 275° West 221 254 5,800  Level Los Angeles Center
Thu 05:55:09 PM 36.1456 -115.2928 344° North 238 274 8,900 2,544 Climbing Los Angeles Center
Thu 05:56:11 PM 36.1858 -115.2175 56° Northeast 260 299 11,100 1,984 Climbing Los Angeles Center
Thu 05:57:13 PM 36.1972 -115.1028 83° East 335 386 13,000 2,661 Climbing Los Angeles Center
Thu 05:58:15 PM 36.1994 -114.9514 89° East 362 417 16,600 2,952 Climbing Los Angeles Center
Thu 05:59:17 PM 36.2003 -114.8222 90° East 372 428 19,100 2,419 Climbing Los Angeles Center
Thu 06:00:19 PM 36.2000 -114.6847 90° East 392 451 21,600 2,274 Climbing Los Angeles Center
Thu 06:01:21 PM 36.1967 -114.5456 92° East 403 464 23,800 1,887 Climbing Los Angeles Center
Thu 06:02:23 PM 36.1953 -114.4011 91° East 418 481 25,500 1,645 Climbing Los Angeles Center
Thu 06:03:25 PM 36.1942 -114.2494 90° East 437 503 27,200 1,776 Climbing Los Angeles Center
Thu 06:04:28 PM 36.2142 -114.0664 82° East 448 516 29,200 1,536 Climbing Los Angeles Center
Thu 06:05:30 PM 36.2322 -113.9125 82° East 451 519 30,400 1,065 Climbing Los Angeles Center
Thu 06:06:32 PM 36.2514 -113.7506 82° East 471 542 31,400 1,161 Climbing Los Angeles Center
Thu 06:07:34 PM 36.2711 -113.5864 81° East 480 552 32,800 1,258 Climbing Los Angeles Center
Thu 06:08:36 PM 36.2889 -113.4206 82° East 485 558 34,000 1,161 Climbing Los Angeles Center
Thu 06:09:38 PM 36.3142 -113.2256 81° East 491 565 35,200 1,306 Climbing Los Angeles Center
Thu 06:10:40 PM 36.3631 -113.0703 69° East 486 559 36,700 871 Climbing Los Angeles Center
Thu 06:11:42 PM 36.4117 -112.9181 68° East 479 551 37,000 145 Climbing Los Angeles Center
Thu 06:12:44 PM 36.4614 -112.7656 68° East 479 551 37,000  Level Los Angeles Center
Thu 06:13:47 PM 36.5097 -112.6147 68° East 475 547 37,000  Level Los Angeles Center
Thu 06:14:49 PM 36.5678 -112.4300 69° East 480 552 37,000  Level Los Angeles Center
Thu 06:15:51 PM 36.6303 -112.2861 62° Northeast 476 548 37,000  Level Los Angeles Center
Thu 06:16:53 PM 36.6969 -112.1461 59° Northeast 474 545 37,000  Level Los Angeles Center
Thu 06:17:25 PM 36.7367 -112.0606 60° Northeast 477 549 37,000  Level Denver Center
Thu 06:18:27 PM 36.8003 -111.9167 61° Northeast 477 549 37,000  Level Denver Center
Thu 06:19:29 PM 36.8472 -111.7581 70° East 485 558 37,000  Level Denver Center
Thu 06:20:31 PM 36.8931 -111.6025 70° East 483 556 37,000  Level Denver Center
Thu 06:21:33 PM 36.9394 -111.4481 69° East 480 552 37,000  Level Denver Center
Thu 06:22:35 PM 36.9919 -111.2628 70° East 475 547 37,000  Level Denver Center
Thu 06:23:37 PM 37.0383 -111.1086 69° East 476 548 37,000  Level Denver Center
Thu 06:24:39 PM 37.0844 -110.9533 70° East 477 549 37,000  Level Denver Center
Thu 06:25:41 PM 37.1286 -110.7975 70° East 477 549 37,000  Level Denver Center
Thu 06:26:43 PM 37.1736 -110.6419 70° East 477 549 37,000  Level Denver Center
Thu 06:27:45 PM 37.2181 -110.4875 70° East 473 544 37,000  Level Denver Center
Thu 06:28:47 PM 37.2711 -110.3022 70° East 472 543 37,000  Level Denver Center
Thu 06:29:49 PM 37.3153 -110.1469 70° East 471 542 37,000  Level Denver Center
Thu 06:30:51 PM 37.3575 -109.9997 70° East 468 539 37,000  Level Denver Center
Thu 06:31:53 PM 37.4061 -109.8264 71° East 469 540 37,000  Level Denver Center
Thu 06:32:55 PM 37.4467 -109.6786 71° East 467 537 37,000  Level Denver Center
Thu 06:33:57 PM 37.4953 -109.5047 71° East 472 543 37,000  Level Denver Center
Thu 06:34:59 PM 37.5369 -109.3550 71° East 472 543 37,000  Level Denver Center
Thu 06:36:01 PM 37.5844 -109.1808 71° East 470 541 37,000  Level Denver Center
Thu 06:37:03 PM 37.6256 -109.0325 71° East 469 540 37,000  Level Denver Center
Thu 06:38:05 PM 37.6661 -108.8814 71° East 472 543 37,000  Level Denver Center
Thu 06:39:07 PM 37.7131 -108.7053 71° East 475 547 37,000  Level Denver Center
Thu 06:40:09 PM 37.7531 -108.5553 71° East 471 542 37,000  Level Denver Center
Thu 06:41:11 PM 37.8003 -108.3814 71° East 469 540 37,000  Level Denver Center
Thu 06:42:13 PM 37.8397 -108.2333 71° East 465 535 37,000  Level Denver Center
Thu 06:43:15 PM 37.8853 -108.0583 72° East 468 539 37,000  Level Denver Center
Thu 06:44:17 PM 37.9239 -107.9072 72° East 470 541 37,000  Level Denver Center
Thu 06:45:19 PM 37.9700 -107.7308 72° East 472 543 37,000  Level Denver Center
Thu 06:46:20 PM 38.0086 -107.5817 72° East 469 540 37,000  Level Denver Center
Thu 06:47:22 PM 38.0475 -107.4283 72° East 474 545 37,000  Level Denver Center
Thu 06:48:24 PM 38.0894 -107.2631 72° East 478 550 37,000  Level Denver Center
Thu 06:49:26 PM 38.1292 -107.1064 72° East 478 550 37,000  Level Denver Center
Thu 06:50:28 PM 38.1697 -106.9464 72° East 477 549 37,000  Level Denver Center
Thu 06:51:30 PM 38.2175 -106.7531 72° East 475 547 37,000  Level Denver Center
Thu 06:52:32 PM 38.2547 -106.6014 73° East 472 543 37,000  Level Denver Center
Thu 06:53:33 PM 38.2964 -106.4361 72° East 475 547 37,000  Level Denver Center
Thu 06:54:35 PM 38.3347 -106.2767 73° East 473 544 37,000  Level Denver Center
Thu 06:55:37 PM 38.3747 -106.1131 73° East 471 542 37,000  Level Denver Center
Thu 06:56:39 PM 38.4183 -105.9311 73° East 477 549 37,000  Level Denver Center
Thu 06:57:41 PM 38.4600 -105.7594 73° East 477 549 37,000  Level Denver Center
Thu 06:58:43 PM 38.4981 -105.5978 73° East 475 547 37,000  Level Denver Center
Thu 06:59:45 PM 38.5364 -105.4353 73° East 474 545 37,000  Level Denver Center
Thu 07:00:46 PM 38.5742 -105.2731 73° East 474 545 37,000  Level Denver Center
Thu 07:01:48 PM 38.6119 -105.1081 74° East 480 552 37,000  Level Denver Center
Thu 07:02:50 PM 38.6511 -104.9439 73° East 481 554 37,000  Level Denver Center
Thu 07:03:52 PM 38.6881 -104.7811 74° East 476 548 37,000  Level Denver Center
Thu 07:05:06 PM 38.7311 -104.5928 74° East 472 543 37,000  Level Denver Center
Thu 07:06:08 PM 38.7742 -104.4039 74° East 471 542 37,000  Level Denver Center
Thu 07:07:10 PM 38.8103 -104.2419 74° East 471 542 37,000  Level Denver Center
Thu 07:08:11 PM 38.8489 -104.0692 74° East 473 544 37,000  Level Denver Center
Thu 07:09:13 PM 38.8836 -103.9153 74° East 474 545 37,000  Level Denver Center
Thu 07:10:15 PM 38.9194 -103.7506 74° East 476 548 37,000  Level Denver Center
Thu 07:11:17 PM 38.9608 -103.5600 74° East 473 544 37,000  Level Denver Center
Thu 07:12:18 PM 38.9953 -103.3986 75° East 469 540 37,000  Level Denver Center
Thu 07:13:20 PM 39.0294 -103.2344 75° East 472 543 37,000  Level Denver Center
Thu 07:14:22 PM 39.0647 -103.0703 74° East 473 544 37,000  Level Denver Center
Thu 07:15:24 PM 39.0994 -102.9044 75° East 475 547 37,000  Level Denver Center
Thu 07:16:26 PM 39.1358 -102.7411 74° East 474 545 37,000  Level Denver Center
Thu 07:17:27 PM 39.1708 -102.5592 76° East 475 547 37,000  Level Denver Center
Thu 07:18:29 PM 39.2044 -102.4014 75° East 476 548 37,000  Level Denver Center
Thu 07:19:31 PM 39.2414 -102.2153 76° East 479 551 37,000  Level Denver Center
Thu 07:20:33 PM 39.2742 -102.0581 75° East 476 548 37,000  Level Denver Center
Thu 07:21:35 PM 39.3114 -101.8708 76° East 480 552 37,000  Level Denver Center
Thu 07:22:36 PM 39.3453 -101.7022 75° East 480 552 37,000  Level Denver Center
Thu 07:23:38 PM 39.3767 -101.5422 76° East 481 554 37,000  Level Denver Center
Thu 07:24:40 PM 39.4139 -101.3567 75° East 480 552 37,000  Level Denver Center
Thu 07:25:42 PM 39.4447 -101.1969 76° East 482 555 37,000  Level Denver Center
Thu 07:26:44 PM 39.4756 -101.0372 76° East 479 551 37,000  Level Denver Center
Thu 07:27:46 PM 39.5111 -100.8503 76° East 480 552 37,000  Level Denver Center
Thu 07:28:48 PM 39.5414 -100.6906 76° East 478 550 37,000  Level Denver Center
Thu 07:29:50 PM 39.5764 -100.5058 76° East 475 547 37,000  Level Denver Center
Thu 07:30:51 PM 39.6056 -100.3453 77° East 477 549 37,000  Level Denver Center
Thu 07:31:53 PM 39.6403 -100.1581 76° East 479 551 37,000  Level Denver Center
Thu 07:32:55 PM 39.6697 -99.9992 76° East 476 548 37,000  Level Denver Center
Thu 07:33:57 PM 39.7042 -99.8097 77° East 475 547 37,000  Level Denver Center
Thu 07:34:59 PM 39.7342 -99.6414 77° East 478 550 37,000  Level Denver Center
Thu 07:36:01 PM 39.7644 -99.4733 77° East 479 551 37,000  Level Denver Center
Thu 07:37:03 PM 39.7944 -99.3039 77° East 481 554 37,000  Level Denver Center
Thu 07:38:05 PM 39.8247 -99.1361 77° East 480 552 37,000  Level Denver Center
Thu 07:39:07 PM 39.8528 -98.9675 78° East 478 550 37,000  Level Denver Center
Thu 07:39:39 PM 39.8708 -98.8647 77° East 479 551 37,000  Level Minneapolis Center
Thu 07:40:09 PM 39.9033 -98.7708 66° East 480 552 37,000  Level Denver Center
Thu 07:40:41 PM 39.9381 -98.7194 49° Northeast 478 550 37,000  Level Minneapolis Center
Thu 07:41:42 PM 40.0256 -98.5917 48° Northeast 474 545 37,000  Level Minneapolis Center
Thu 07:42:44 PM 40.1303 -98.4356 49° Northeast 476 548 37,000  Level Minneapolis Center
Thu 07:43:46 PM 40.2192 -98.3047 48° Northeast 480 552 37,000  Level Minneapolis Center
Thu 07:44:48 PM 40.2958 -98.1622 55° Northeast 485 558 37,000  Level Minneapolis Center
Thu 07:45:50 PM 40.3244 -97.9903 78° East 490 564 37,000  Level Minneapolis Center
Thu 07:46:51 PM 40.3494 -97.8169 79° East 487 560 37,000  Level Minneapolis Center
Thu 07:47:53 PM 40.3719 -97.6400 80° East 491 565 37,000  Level Minneapolis Center
Thu 07:48:55 PM 40.3956 -97.4647 80° East 490 564 37,000  Level Minneapolis Center
Thu 07:49:57 PM 40.4233 -97.2567 80° East 493 567 37,000  Level Minneapolis Center
Thu 07:50:59 PM 40.4461 -97.0792 80° East 494 568 37,000  Level Minneapolis Center
Thu 07:52:00 PM 40.4692 -96.9011 80° East 495 570 37,000  Level Minneapolis Center
Thu 07:53:02 PM 40.4914 -96.7225 81° East 497 572 37,000  Level Minneapolis Center
Thu 07:54:04 PM 40.5142 -96.5431 80° East 498 573 37,000  Level Minneapolis Center
Thu 07:55:06 PM 40.5361 -96.3625 81° East 501 577 37,000  Level Minneapolis Center
Thu 07:56:08 PM 40.5614 -96.1464 81° East 503 579 37,000  Level Minneapolis Center
Thu 07:57:09 PM 40.5833 -95.9647 81° East 505 581 37,000  Level Minneapolis Center
Thu 07:58:11 PM 40.6050 -95.7831 81° East 505 581 37,000  Level Minneapolis Center
Thu 07:59:13 PM 40.6247 -95.6031 82° East 501 577 37,000  Level Minneapolis Center
Thu 08:00:15 PM 40.6467 -95.4189 81° East 508 585 37,000  Level Minneapolis Center
Thu 08:01:17 PM 40.6686 -95.2369 81° East 506 582 37,000  Level Minneapolis Center
Thu 08:02:18 PM 40.6919 -95.0211 82° East 500 575 37,000  Level Minneapolis Center
Thu 08:03:20 PM 40.7117 -94.8447 82° East 493 567 37,000  Level Minneapolis Center
Thu 08:04:22 PM 40.7303 -94.6658 82° East 493 567 37,000  Level Minneapolis Center
Thu 08:05:24 PM 40.7503 -94.4719 82° East 491 565 37,000  Level Minneapolis Center
Thu 08:06:26 PM 40.7686 -94.2939 82° East 491 565 37,000  Level Minneapolis Center
Thu 08:07:28 PM 40.7856 -94.1144 83° East 495 570 37,000  Level Minneapolis Center
Thu 08:08:29 PM 40.8053 -93.9339 82° East 498 573 37,000  Level Minneapolis Center
Thu 08:09:31 PM 40.8231 -93.7525 83° East 500 575 37,000  Level Minneapolis Center
Thu 08:10:33 PM 40.8406 -93.5722 83° East 498 573 37,000  Level Minneapolis Center
Thu 08:11:35 PM 40.8619 -93.3572 82° East 495 570 37,000  Level Minneapolis Center
Thu 08:12:37 PM 40.8775 -93.1789 83° East 494 568 37,000  Level Minneapolis Center
Thu 08:13:39 PM 40.8964 -92.9953 82° East 499 574 37,000 -634 Level Minneapolis Center
Thu 08:14:40 PM 40.9133 -92.8153 83° East 496 571 35,700 -1,317 Descending Minneapolis Center
Thu 08:15:42 PM 40.9294 -92.6375 83° East 491 565 34,300 -1,113 Descending Minneapolis Center
Thu 08:16:44 PM 40.9444 -92.4589 84° East 489 563 33,400 -947 Descending Minneapolis Center
Thu 08:17:55 PM 40.9633 -92.2444 83° East 487 560 32,200 -778 Descending Chicago Center
Thu 08:19:49 PM 40.9928 -91.8936 84° East 484 557 31,000 -409 Descending Minneapolis Center
Thu 08:20:51 PM 41.0081 -91.7044 84° East 481 554 31,000  Level Minneapolis Center
Thu 08:22:04 PM 41.0233 -91.5139 84° East 473 544 31,000  Level Chicago Center
Thu 08:23:06 PM 41.0369 -91.3411 84° East 471 542 31,000 -145 Level Chicago Center
Thu 08:24:08 PM 41.0508 -91.1689 84° East 470 541 30,700 -1,403 Descending Chicago Center
Thu 08:25:10 PM 41.0631 -90.9989 84° East 466 536 28,100 -2,274 Descending Chicago Center
Thu 08:26:12 PM 41.0747 -90.8267 85° East 468 539 26,000 -1,742 Descending Chicago Center
Thu 08:27:14 PM 41.1083 -90.6558 75° East 476 548 24,500 -968 Descending Chicago Center
Thu 08:28:16 PM 41.1475 -90.4586 75° East 461 531 24,000 -871 Descending Chicago Center
Thu 08:29:18 PM 41.1786 -90.3003 75° East 446 513 22,700 -1,548 Descending Chicago Center
Thu 08:30:20 PM 41.2081 -90.1475 76° East 427 491 20,800 -1,839 Descending Chicago Center
Thu 08:31:22 PM 41.2375 -89.9981 75° East 417 480 18,900 -1,887 Descending Chicago Center
Thu 08:32:24 PM 41.2658 -89.8544 75° East 402 463 16,900 -1,902 Descending Chicago Center
Thu 08:33:25 PM 41.2908 -89.7192 76° East 379 436 15,000 -1,220 Descending Chicago Center
Thu 08:34:27 PM 41.3150 -89.5892 76° East 363 418 14,400 -871 Descending Chicago Center
Thu 08:35:29 PM 41.3439 -89.4350 76° East 357 411 13,200 -1,065 Descending Chicago Center
Thu 08:36:31 PM 41.3683 -89.3106 75° East 350 403 12,200 -968 Descending Chicago Center
Thu 08:37:33 PM 41.3911 -89.1800 77° East 339 390 11,200 -1,016 Descending Chicago Center
Thu 08:38:35 PM 41.4111 -89.0639 77° East 329 379 10,100 -912 Descending Chicago Center
Thu 08:39:38 PM 41.4314 -88.9561 76° East 306 352 9,300 -864 Descending Chicago Center
Thu 08:40:40 PM 41.4503 -88.8508 77° East 295 339 8,300 -968 Descending Chicago Center
Thu 08:41:42 PM 41.4714 -88.7458 75° East 294 338 7,300 -677 Descending Chicago Center
Thu 08:42:44 PM 41.4886 -88.6458 77° East 283 326 6,900 -581 Descending Chicago Center
Thu 08:43:46 PM 41.5089 -88.5281 77° East 274 315 6,100 -774 Descending Chicago Center
Thu 08:44:48 PM 41.5239 -88.4281 79° East 275 316 5,300 -532 Descending Chicago Center
Thu 08:45:50 PM 41.5344 -88.3297 82° East 271 312 5,000 -145 Descending Chicago Center
Thu 08:46:52 PM 41.5453 -88.2333 81° East 264 304 5,000  Level Chicago Center
Thu 08:47:54 PM 41.5544 -88.1453 82° East 246 283 5,000  Level Chicago Center
Thu 08:48:56 PM 41.5656 -88.0583 80° East 239 275 5,000  Level Chicago Center
Thu 08:49:59 PM 41.5750 -87.9694 82° East 239 275 5,000  Level Chicago Center
Thu 08:51:01 PM 41.5875 -87.8633 81° East 240 276 5,000 -97 Level Chicago Center
Thu 08:52:03 PM 41.5950 -87.7719 84° East 243 280 4,800 -532 Descending Chicago Center
Thu 08:53:05 PM 41.5939 -87.6831 91° East 243 280 3,900 -871 Descending Chicago Center
Thu 08:54:07 PM 41.6278 -87.6111 58° Northeast 237 273 3,000 -622 Descending Chicago Center
Thu 08:55:20 PM 41.7000 -87.6333 347° North 194 223 2,500 -432 Descending Chicago TRACON
Thu 08:56:26 PM 41.7333 -87.6833 312° West 161 185 2,000 -600 Descending Chicago TRACON
Thu 08:57:20 PM 41.7500 -87.7167 304° West 132 152 1,300 -778 Descending Chicago TRACON

Login

Don't have an account? Register now (free) for customized features, flight alerts, and more!